createdAt,value
2022-09-16T00:00:11.974Z,16.66
2022-09-16T00:03:16.849Z,16.69
2022-09-16T00:06:27.890Z,16.65
2022-09-16T00:09:30.808Z,16.62
2022-09-16T00:12:33.317Z,16.63
2022-09-16T00:15:36.463Z,16.66
2022-09-16T00:18:39.333Z,16.63
2022-09-16T00:21:42.240Z,16.63
2022-09-16T00:24:45.178Z,16.61
2022-09-16T00:27:49.355Z,16.55
2022-09-16T00:30:52.185Z,16.50
2022-09-16T00:33:55.099Z,16.49
2022-09-16T00:36:57.587Z,16.54
2022-09-16T00:40:00.966Z,16.44
2022-09-16T00:43:03.416Z,16.41
2022-09-16T00:46:06.314Z,16.28
2022-09-16T00:49:20.458Z,16.05
2022-09-16T00:52:23.260Z,16.01
2022-09-16T00:55:28.990Z,15.93
2022-09-16T00:58:50.319Z,15.83
2022-09-16T01:01:54.699Z,15.81
2022-09-16T01:05:05.107Z,15.70
2022-09-16T01:08:08.190Z,15.77
2022-09-16T01:11:11.223Z,15.65
2022-09-16T01:14:33.273Z,15.66
2022-09-16T01:17:51.232Z,15.51
2022-09-16T01:21:31.376Z,15.54
2022-09-16T01:24:50.303Z,15.45
2022-09-16T01:28:35.360Z,15.47
2022-09-16T01:31:52.083Z,15.39
2022-09-16T01:35:25.533Z,15.31
2022-09-16T01:38:41.678Z,15.32
2022-09-16T01:42:06.103Z,15.30
2022-09-16T01:45:28.546Z,15.29
2022-09-16T01:48:40.905Z,15.30
2022-09-16T01:52:06.232Z,15.24
2022-09-16T01:55:11.159Z,15.16
2022-09-16T01:58:27.713Z,15.11
2022-09-16T02:01:34.356Z,15.12
2022-09-16T02:04:41.025Z,15.06
2022-09-16T02:07:47.628Z,15.02
2022-09-16T02:10:54.035Z,15.03
2022-09-16T02:13:59.535Z,15.06
2022-09-16T02:17:07.855Z,15.08
2022-09-16T02:20:15.472Z,15.06
2022-09-16T02:23:21.032Z,15.09
2022-09-16T02:26:28.438Z,15.08
2022-09-16T02:29:40.022Z,15.01
2022-09-16T02:32:46.717Z,14.98
2022-09-16T02:35:51.960Z,14.97
2022-09-16T02:39:04.095Z,15.02
2022-09-16T02:42:07.977Z,15.05
2022-09-16T02:45:10.952Z,15.04
2022-09-16T02:48:49.643Z,15.01
2022-09-16T02:52:10.193Z,14.93
2022-09-16T02:55:16.044Z,14.86
2022-09-16T02:58:18.797Z,14.87
2022-09-16T03:01:22.860Z,14.87
2022-09-16T03:04:25.527Z,14.87
2022-09-16T03:07:28.468Z,14.93
2022-09-16T03:10:37.449Z,14.89
2022-09-16T03:14:04.671Z,14.81
2022-09-16T03:17:42.491Z,14.84
2022-09-16T03:20:57.614Z,14.82
2022-09-16T03:24:10.618Z,14.86
2022-09-16T03:27:20.814Z,14.86
2022-09-16T03:30:24.008Z,14.84
2022-09-16T03:33:38.171Z,14.81
2022-09-16T03:36:45.415Z,14.83
2022-09-16T03:39:53.463Z,14.85
2022-09-16T03:42:57.922Z,14.84
2022-09-16T03:46:00.755Z,14.88
2022-09-16T03:49:03.404Z,14.90
2022-09-16T03:52:07.147Z,14.86
2022-09-16T03:55:11.248Z,14.85
2022-09-16T03:58:14.147Z,14.84
2022-09-16T04:01:16.870Z,14.78
2022-09-16T04:04:19.917Z,14.80
2022-09-16T04:07:22.493Z,14.81
2022-09-16T04:10:25.929Z,14.73
2022-09-16T04:13:33.354Z,14.75
2022-09-16T04:16:36.085Z,14.60
2022-09-16T04:19:38.566Z,14.74
2022-09-16T04:22:41.424Z,14.78
2022-09-16T04:25:43.936Z,14.71
2022-09-16T04:28:48.018Z,14.72
2022-09-16T04:31:50.584Z,14.67
2022-09-16T04:34:53.419Z,14.64
2022-09-16T04:37:55.863Z,14.64
2022-09-16T04:41:04.066Z,14.63
2022-09-16T04:44:06.547Z,14.66
2022-09-16T04:47:09.296Z,14.63
2022-09-16T04:50:11.838Z,14.61
2022-09-16T04:53:14.946Z,14.60
2022-09-16T04:56:25.529Z,14.56
2022-09-16T04:59:28.404Z,14.58
2022-09-16T05:02:31.033Z,14.55
2022-09-16T05:05:33.840Z,14.56
2022-09-16T05:08:36.461Z,14.53
2022-09-16T05:11:40.333Z,14.56
2022-09-16T05:14:42.838Z,14.56
2022-09-16T05:17:51.324Z,14.63
2022-09-16T05:20:59.479Z,14.67
2022-09-16T05:24:04.020Z,15.30
2022-09-16T05:27:07.001Z,15.43
2022-09-16T05:30:10.711Z,15.13
2022-09-16T05:33:13.338Z,14.92
2022-09-16T05:36:17.951Z,14.83
2022-09-16T05:39:23.826Z,14.86
2022-09-16T05:42:27.163Z,14.77
2022-09-16T05:45:32.437Z,14.79
2022-09-16T05:48:36.330Z,14.79
2022-09-16T05:51:39.899Z,14.82
2022-09-16T05:54:42.864Z,14.87
2022-09-16T05:57:45.369Z,14.81
2022-09-16T06:01:01.930Z,14.88
2022-09-16T06:04:06.744Z,14.89
2022-09-16T06:07:09.326Z,14.97
2022-09-16T06:10:12.210Z,15.01
2022-09-16T06:13:14.891Z,15.05
2022-09-16T06:16:18.311Z,15.21
2022-09-16T06:19:20.785Z,15.29
2022-09-16T06:22:23.589Z,15.32
2022-09-16T06:25:26.219Z,15.36
2022-09-16T06:28:29.532Z,15.35
2022-09-16T06:31:32.122Z,15.39
2022-09-16T06:34:34.874Z,15.47
2022-09-16T06:37:37.450Z,15.51
2022-09-16T06:40:40.892Z,15.63
2022-09-16T06:43:44.193Z,15.62
2022-09-16T06:46:46.905Z,15.58
2022-09-16T06:49:49.521Z,15.66
2022-09-16T06:52:52.407Z,15.73
2022-09-16T06:55:55.132Z,15.78
2022-09-16T06:58:58.224Z,15.84
2022-09-16T07:02:01.570Z,15.93
2022-09-16T07:05:04.881Z,16.03
2022-09-16T07:08:07.578Z,16.09
2022-09-16T07:11:15.590Z,16.15
2022-09-16T07:14:18.104Z,16.05
2022-09-16T07:17:23.721Z,16.09
2022-09-16T07:20:26.954Z,16.13
2022-09-16T07:23:34.815Z,16.09
2022-09-16T07:26:40.396Z,16.04
2022-09-16T07:29:43.309Z,16.18
2022-09-16T07:32:46.044Z,16.21
2022-09-16T07:35:48.986Z,16.35
2022-09-16T07:38:51.959Z,16.42
2022-09-16T07:41:54.945Z,16.42
2022-09-16T07:44:57.584Z,16.44
2022-09-16T07:48:00.386Z,16.56
2022-09-16T07:51:08.766Z,16.77
2022-09-16T07:54:14.995Z,17.01
2022-09-16T07:57:18.332Z,17.32
2022-09-16T08:00:22.247Z,17.30
2022-09-16T08:03:25.493Z,17.28
2022-09-16T08:06:29.700Z,17.18
2022-09-16T08:09:46.136Z,17.21
2022-09-16T08:12:53.484Z,17.28
2022-09-16T08:16:00.352Z,17.30
2022-09-16T08:19:02.920Z,17.15
2022-09-16T08:22:05.952Z,17.19
2022-09-16T08:25:08.646Z,17.04
2022-09-16T08:28:15.474Z,17.16
2022-09-16T08:31:19.119Z,17.16
2022-09-16T08:34:21.943Z,17.29
2022-09-16T08:37:24.507Z,17.40
2022-09-16T08:40:29.670Z,17.41
2022-09-16T08:43:50.441Z,17.46
2022-09-16T08:46:56.493Z,17.41
2022-09-16T08:50:01.432Z,17.57
2022-09-16T08:53:11.394Z,17.42
2022-09-16T08:56:17.954Z,17.38
2022-09-16T08:59:25.170Z,17.40
2022-09-16T09:02:43.052Z,17.34
2022-09-16T09:05:55.541Z,17.31
2022-09-16T09:09:34.639Z,17.17
2022-09-16T09:12:48.834Z,17.12
2022-09-16T09:16:09.186Z,17.10
2022-09-16T09:19:45.783Z,17.00
2022-09-16T09:22:55.661Z,17.13
2022-09-16T09:26:05.345Z,17.14
2022-09-16T09:29:39.087Z,17.32
2022-09-16T09:32:57.323Z,18.09
2022-09-16T09:36:37.640Z,18.47
2022-09-16T09:40:04.446Z,18.31
2022-09-16T09:43:14.791Z,18.13
2022-09-16T09:46:24.420Z,17.82
2022-09-16T09:49:34.052Z,17.54
2022-09-16T09:53:12.493Z,17.46
2022-09-16T09:56:21.105Z,17.27
2022-09-16T09:59:32.689Z,17.25
2022-09-16T10:02:35.447Z,17.29
2022-09-16T10:05:38.750Z,17.22
2022-09-16T10:08:47.710Z,17.56
2022-09-16T10:11:55.691Z,17.71
2022-09-16T10:14:58.725Z,17.75
2022-09-16T10:18:03.020Z,17.77
2022-09-16T10:21:05.710Z,17.66
2022-09-16T10:24:28.708Z,17.71
2022-09-16T10:27:36.036Z,17.74
2022-09-16T10:30:48.417Z,17.86
2022-09-16T10:33:50.972Z,17.79
2022-09-16T10:37:20.170Z,17.79
2022-09-16T10:40:24.119Z,17.62
2022-09-16T10:43:29.211Z,18.44
2022-09-16T10:46:31.954Z,18.57
2022-09-16T10:49:46.494Z,18.73
2022-09-16T10:52:49.769Z,18.92
2022-09-16T10:55:58.279Z,18.93
2022-09-16T10:59:14.228Z,19.03
2022-09-16T11:02:53.038Z,19.07
2022-09-16T11:06:04.703Z,18.90
2022-09-16T11:09:45.888Z,18.75
2022-09-16T11:13:13.140Z,18.49
2022-09-16T11:16:25.452Z,18.26
2022-09-16T11:19:54.795Z,18.21
2022-09-16T11:23:18.850Z,18.10
2022-09-16T11:26:39.042Z,18.03
2022-09-16T11:30:19.725Z,18.15
2022-09-16T11:33:37.087Z,18.19
2022-09-16T11:37:07.278Z,18.25
2022-09-16T11:40:34.028Z,18.19
2022-09-16T11:43:58.149Z,18.29
2022-09-16T11:47:25.204Z,18.20
2022-09-16T11:51:01.758Z,18.35
2022-09-16T11:54:35.373Z,18.45
2022-09-16T11:57:40.492Z,18.61
2022-09-16T12:00:43.420Z,18.64
2022-09-16T12:03:51.598Z,18.54
2022-09-16T12:07:01.885Z,18.59
2022-09-16T12:10:44.120Z,18.62
2022-09-16T12:14:08.939Z,18.69
2022-09-16T12:17:18.717Z,18.73
2022-09-16T12:20:38.573Z,18.71
2022-09-16T12:23:48.865Z,18.80
2022-09-16T12:27:25.565Z,18.76
2022-09-16T12:30:36.063Z,18.73
2022-09-16T12:33:48.592Z,18.69
2022-09-16T12:37:33.770Z,18.59
2022-09-16T12:41:02.664Z,18.57
2022-09-16T12:44:33.543Z,18.50
2022-09-16T12:47:58.381Z,18.49
2022-09-16T12:51:22.964Z,18.43
2022-09-16T12:55:07.672Z,18.31
2022-09-16T12:58:57.293Z,18.32
2022-09-16T13:02:05.308Z,18.32
2022-09-16T13:05:22.671Z,18.23
2022-09-16T13:08:30.871Z,18.32
2022-09-16T13:15:05.133Z,18.36
2022-09-16T13:18:13.959Z,18.40
2022-09-16T13:21:32.766Z,18.54
2022-09-16T13:25:06.694Z,18.62
2022-09-16T13:28:38.243Z,18.54
2022-09-16T13:31:48.735Z,18.57
2022-09-16T13:35:21.439Z,18.61
2022-09-16T13:38:26.155Z,18.66
2022-09-16T13:41:42.653Z,18.75
2022-09-16T13:44:45.479Z,18.67
2022-09-16T13:47:51.319Z,18.80
2022-09-16T13:50:58.131Z,18.83
2022-09-16T13:54:04.645Z,18.89
2022-09-16T13:57:29.106Z,19.26
2022-09-16T14:00:40.663Z,19.37
2022-09-16T14:03:56.641Z,19.46
2022-09-16T14:06:59.129Z,19.48
2022-09-16T14:10:11.141Z,19.43
2022-09-16T14:13:17.006Z,19.31
2022-09-16T14:16:22.972Z,19.18
2022-09-16T14:19:27.964Z,18.94
2022-09-16T14:22:31.770Z,18.87
2022-09-16T14:25:36.271Z,18.81
2022-09-16T14:28:39.579Z,18.84
2022-09-16T14:31:45.340Z,18.92
2022-09-16T14:34:52.790Z,18.79
2022-09-16T14:37:59.347Z,18.69
2022-09-16T14:41:06.957Z,18.56
2022-09-16T14:44:27.027Z,18.48
2022-09-16T14:47:50.705Z,18.38
2022-09-16T14:50:55.492Z,18.29
2022-09-16T14:54:15.496Z,18.20
2022-09-16T14:57:30.188Z,18.15
2022-09-16T15:00:41.299Z,18.15
2022-09-16T15:04:04.796Z,18.10
2022-09-16T15:07:12.542Z,18.04
2022-09-16T15:10:21.499Z,17.92
2022-09-16T15:13:35.587Z,17.93
2022-09-16T15:16:50.301Z,17.92
2022-09-16T15:20:00.060Z,17.95
2022-09-16T15:23:02.884Z,17.95
2022-09-16T15:26:18.135Z,17.89
2022-09-16T15:29:20.921Z,17.89
2022-09-16T15:32:27.436Z,17.83
2022-09-16T15:35:35.489Z,17.87
2022-09-16T15:38:42.274Z,17.83
2022-09-16T15:41:46.919Z,17.81
2022-09-16T15:44:58.446Z,17.76
2022-09-16T15:48:02.898Z,17.77
2022-09-16T15:51:30.285Z,17.90
2022-09-16T15:54:54.473Z,17.94
2022-09-16T15:58:03.350Z,18.20
2022-09-16T16:01:43.550Z,17.97
2022-09-16T16:04:46.504Z,17.78
2022-09-16T16:07:54.571Z,17.67
2022-09-16T16:11:09.106Z,17.44
2022-09-16T16:14:11.604Z,17.41
2022-09-16T16:17:16.954Z,17.33
2022-09-16T16:20:21.463Z,17.49
2022-09-16T16:23:24.259Z,17.65
2022-09-16T16:26:26.857Z,17.92
2022-09-16T16:29:30.036Z,17.69
2022-09-16T16:32:34.911Z,17.43
2022-09-16T16:35:37.769Z,17.28
2022-09-16T16:38:40.673Z,17.18
2022-09-16T16:41:43.643Z,17.14
2022-09-16T16:44:46.119Z,17.08
2022-09-16T16:47:48.949Z,16.97
2022-09-16T16:51:03.772Z,16.92
2022-09-16T16:54:06.918Z,16.88
2022-09-16T16:57:10.374Z,16.83
2022-09-16T17:00:14.619Z,16.82
2022-09-16T17:03:17.174Z,16.81
2022-09-16T17:06:20.068Z,16.74
2022-09-16T17:09:22.995Z,16.69
2022-09-16T17:12:26.628Z,16.65
2022-09-16T17:15:29.151Z,16.67
2022-09-16T17:18:34.281Z,16.70
2022-09-16T17:21:37.172Z,16.68
2022-09-16T17:24:39.937Z,16.65
2022-09-16T17:27:42.415Z,16.62
2022-09-16T17:30:45.347Z,16.58
2022-09-16T17:33:53.585Z,16.57
2022-09-16T17:36:57.552Z,16.52
2022-09-16T17:40:00.575Z,16.47
2022-09-16T17:43:03.602Z,16.45
2022-09-16T17:46:08.757Z,16.39
2022-09-16T17:49:16.997Z,16.32
2022-09-16T17:52:19.555Z,16.27
2022-09-16T17:55:22.314Z,16.24
2022-09-16T17:58:25.160Z,16.28
2022-09-16T18:01:28.273Z,16.26
2022-09-16T18:04:31.698Z,16.22
2022-09-16T18:07:34.241Z,16.17
2022-09-16T18:10:37.355Z,16.79
2022-09-16T18:13:40.588Z,16.46
2022-09-16T18:16:43.659Z,16.31
2022-09-16T18:19:46.444Z,16.19
2022-09-16T18:22:49.141Z,16.05
2022-09-16T18:25:51.668Z,16.08
2022-09-16T18:29:12.374Z,15.99
2022-09-16T18:32:15.265Z,15.98
2022-09-16T18:35:18.291Z,15.98
2022-09-16T18:38:20.929Z,15.95
2022-09-16T18:41:29.393Z,15.98
2022-09-16T18:44:31.999Z,15.89
2022-09-16T18:47:34.998Z,15.87
2022-09-16T18:50:38.113Z,15.91
2022-09-16T18:53:40.950Z,15.89
2022-09-16T18:56:43.941Z,15.84
2022-09-16T18:59:48.111Z,15.85
2022-09-16T19:02:51.920Z,15.84
2022-09-16T19:05:55.327Z,15.80
2022-09-16T19:08:59.999Z,15.73
2022-09-16T19:12:03.584Z,16.42
2022-09-16T19:15:06.955Z,15.94
2022-09-16T19:18:12.038Z,15.89
2022-09-16T19:21:16.426Z,15.79
2022-09-16T19:24:21.896Z,15.64
2022-09-16T19:27:24.947Z,15.57
2022-09-16T19:30:27.858Z,15.57
2022-09-16T19:33:32.093Z,15.49
2022-09-16T19:36:35.714Z,15.51
2022-09-16T19:39:39.483Z,15.48
2022-09-16T19:42:42.480Z,15.44
2022-09-16T19:45:45.277Z,15.43
2022-09-16T19:48:51.080Z,15.40
2022-09-16T19:51:53.847Z,15.36
2022-09-16T19:54:56.641Z,15.37
2022-09-16T19:57:59.113Z,15.35
2022-09-16T20:01:04.623Z,15.39
2022-09-16T20:04:08.237Z,15.40
2022-09-16T20:07:17.205Z,15.39
2022-09-16T20:10:22.261Z,15.40
2022-09-16T20:13:27.614Z,15.35
2022-09-16T20:16:36.060Z,15.33
2022-09-16T20:19:38.657Z,15.32
2022-09-16T20:22:41.475Z,15.32
2022-09-16T20:25:44.066Z,15.32
2022-09-16T20:28:52.335Z,15.31
2022-09-16T20:31:55.221Z,15.28
2022-09-16T20:34:59.968Z,15.22
2022-09-16T20:38:02.652Z,14.96
2022-09-16T20:41:06.438Z,15.19
2022-09-16T20:44:13.515Z,15.24
2022-09-16T20:47:16.838Z,15.05
2022-09-16T20:50:19.599Z,15.14
2022-09-16T20:53:22.505Z,15.18
2022-09-16T20:56:26.466Z,15.11
2022-09-16T20:59:29.938Z,15.11
2022-09-16T21:02:32.688Z,15.14
2022-09-16T21:05:35.664Z,15.16
2022-09-16T21:08:38.380Z,15.14
2022-09-16T21:11:44.519Z,15.10
2022-09-16T21:14:47.199Z,15.11
2022-09-16T21:17:50.099Z,15.10
2022-09-16T21:21:07.285Z,15.07
2022-09-16T21:24:10.348Z,15.08
2022-09-16T21:27:12.845Z,15.09
2022-09-16T21:30:16.520Z,15.07
2022-09-16T21:33:19.056Z,15.07
2022-09-16T21:36:24.515Z,15.03
2022-09-16T21:39:28.149Z,14.95
2022-09-16T21:42:31.167Z,15.05
2022-09-16T21:45:33.640Z,15.05
2022-09-16T21:48:37.570Z,15.07
2022-09-16T21:51:40.084Z,15.14
2022-09-16T21:54:42.848Z,15.09
2022-09-16T21:57:46.861Z,15.03
2022-09-16T22:00:49.857Z,14.92
2022-09-16T22:04:01.030Z,14.94
2022-09-16T22:07:03.617Z,14.89
2022-09-16T22:10:07.208Z,14.86
2022-09-16T22:13:10.250Z,14.86
2022-09-16T22:16:16.745Z,14.82
2022-09-16T22:19:19.757Z,14.80
2022-09-16T22:22:22.527Z,14.72
2022-09-16T22:25:25.015Z,14.76
2022-09-16T22:28:28.020Z,14.72
2022-09-16T22:31:32.045Z,14.73
2022-09-16T22:34:35.571Z,14.68
2022-09-16T22:37:38.224Z,14.63
2022-09-16T22:40:41.407Z,14.52
2022-09-16T22:43:45.761Z,14.50
2022-09-16T22:46:48.687Z,14.51
2022-09-16T22:49:51.327Z,14.49
2022-09-16T22:52:54.111Z,14.50
2022-09-16T22:56:01.479Z,14.50
2022-09-16T22:59:06.436Z,14.48
2022-09-16T23:02:09.178Z,14.48
2022-09-16T23:05:12.156Z,14.46
2022-09-16T23:08:14.772Z,14.48
2022-09-16T23:11:20.130Z,14.42
2022-09-16T23:14:26.538Z,14.37
2022-09-16T23:17:29.290Z,14.34
2022-09-16T23:20:32.932Z,14.35
2022-09-16T23:23:38.408Z,14.24
2022-09-16T23:26:41.255Z,14.25
2022-09-16T23:29:44.102Z,14.25
2022-09-16T23:32:46.751Z,14.24
2022-09-16T23:35:50.495Z,14.17
2022-09-16T23:38:54.493Z,14.06
2022-09-16T23:41:57.344Z,14.02
2022-09-16T23:45:00.081Z,13.98
2022-09-16T23:48:04.116Z,14.00
2022-09-16T23:51:07.483Z,14.06
2022-09-16T23:54:10.380Z,14.08
2022-09-16T23:57:12.885Z,14.06
